Tokyo, Japan
Current Conditions -  °F | °C
As of 9:00 PM on Monday 24 Nov 2014 (Local Time) from RJTT Reporting Station
Broken Clouds Broken Clouds  
Wind Chill: 54°   Ceiling: Unl
Heat Index: 54°   Visibility: 6mi
Dew Point: 46°   Wind: 6mph
Humidity: 77%   Direction: 280°W
Pressure: 30.03"   Gusts: NA
Location:  35.67°N, 139.77°E
Report Text: RJTT 241200Z 28005KT 9999 FEW020 BKN/// 12/08 Q1017 NOSIG
Loading
Personal Weather Stations






























Interactive Weather Map New forecast layout! Learn more

10-Day Weather Forecast

Advertisements
Track Severe Weather on mobile